Portada
METAR-TAF:

METAR-TAF

Aeropuertos :

Aeropuerto de Limoges

Limoges, Francia

latitud: 45-52N, longitud: 001-11E, altitud: 396 m

Observación

El informe se hizo hace 21 minutos, a las 02:00 UTC
Viento 7 kt del este-sureste
Temperatura 9°C
Humedad 49%
Presión 1025 hPa
Visibilidad 10 km o más
sin nubes por debajo de 1500 m y sin presencia de cumulonimbus.

METAR: LFBL 020200Z AUTO 12007KT CAVOK 09/M01 Q1025 NOSIG

Hora: 03:21 (02:21 UTC)

Pronóstico

El informe se hizo hace 3 horas y 21 minutos, a las 23:00 UTC
Pronóstico válido del 02 a las 00 UTC al 02 a las 24 UTC
Viento 8 kt del este
Visibilidad 10 km o más
sin nubes por debajo de 1500 m y sin presencia de cumulonimbus.
Evolucionando progresivamente
del 02 a las 09 UTC al 02 a las 11 UTC
Viento 10 kt del sur-sureste

TAF: LFBL 012300Z 0200/0224 10008KT CAVOK BECMG 0209/0211 16010KT

Observaciones y pronósticos meteorológicos de más de 4000 aeropuertos (mensajes METAR y TAF).

Los puntos amarillos y rojos representan las estaciones disponibles.

Ponga el ratón en el punto deseado para ver el nombre de la estación.

Haga clic para ver las observaciones y los pronósticos meteorológicos.

Para cambiar el mapa : haga clic en los botones verdes con una cruz de color negro para hacer un zoom, en el botón verde con un guión para alejar o en las flechas verdes para mapas adyacentes.


METAR-TAF: